createdAt,value
2018-01-15T00:01:52.302Z,101402.23
2018-01-15T00:04:19.834Z,101406.48
2018-01-15T00:06:47.371Z,101405.73
2018-01-15T00:09:14.922Z,101407.75
2018-01-15T00:11:42.457Z,101403.61
2018-01-15T00:14:10.042Z,101398.83
2018-01-15T00:16:37.642Z,101397.42
2018-01-15T00:19:05.278Z,101399.78
2018-01-15T00:21:32.878Z,101413.05
2018-01-15T00:24:00.483Z,101410.81
2018-01-15T00:26:28.074Z,101416.28
2018-01-15T00:28:55.607Z,101413.42
2018-01-15T00:31:23.141Z,101407.63
2018-01-15T00:33:50.682Z,101407.63
2018-01-15T00:36:18.217Z,101413.76
2018-01-15T00:38:45.821Z,101407.68
2018-01-15T00:41:13.419Z,101409.74
2018-01-15T00:43:40.950Z,101410.91
2018-01-15T00:46:08.550Z,101408.31
2018-01-15T00:48:36.093Z,101399.06
2018-01-15T00:51:03.731Z,101401.11
2018-01-15T00:53:31.330Z,101402.95
2018-01-15T00:55:58.925Z,101401.03
2018-01-15T00:58:26.530Z,101408.64
2018-01-15T01:00:54.126Z,101400.31
2018-01-15T01:03:21.714Z,101401.50
2018-01-15T01:05:49.261Z,101397.97
2018-01-15T01:08:16.861Z,101393.70
2018-01-15T01:10:44.446Z,101394.69
2018-01-15T01:13:12.039Z,101389.80
2018-01-15T01:15:39.630Z,101392.41
2018-01-15T01:18:07.169Z,101393.48
2018-01-15T01:20:34.729Z,101397.10
2018-01-15T01:23:02.285Z,101393.18
2018-01-15T01:25:29.886Z,101393.61
2018-01-15T01:27:57.482Z,101389.26
2018-01-15T01:30:25.085Z,101386.79
2018-01-15T01:32:52.658Z,101390.26
2018-01-15T01:35:20.210Z,101389.09
2018-01-15T01:37:47.806Z,101387.66
2018-01-15T01:40:15.451Z,101392.24
2018-01-15T01:42:43.021Z,101387.12
2018-01-15T01:45:10.565Z,101387.14
2018-01-15T01:47:38.113Z,101379.14
2018-01-15T01:50:05.654Z,101372.08
2018-01-15T01:52:33.316Z,101379.81
2018-01-15T01:55:00.866Z,101371.85
2018-01-15T01:57:28.406Z,101370.76
2018-01-15T01:59:55.949Z,101362.61
2018-01-15T02:02:23.485Z,101367.45
2018-01-15T02:04:51.126Z,101361.16
2018-01-15T02:07:18.661Z,101369.28
2018-01-15T02:09:46.271Z,101359.58
2018-01-15T02:12:13.822Z,101352.89
2018-01-15T02:14:41.365Z,101342.01
2018-01-15T02:17:08.951Z,101341.20
2018-01-15T02:19:36.570Z,101332.64
2018-01-15T02:22:04.118Z,101326.94
2018-01-15T02:24:31.742Z,101330.55
2018-01-15T02:26:59.289Z,101335.03
2018-01-15T02:29:26.963Z,101334.52
2018-01-15T02:31:54.523Z,101332.56
2018-01-15T02:34:22.070Z,101333.31
2018-01-15T02:36:49.622Z,101337.47
2018-01-15T02:39:17.163Z,101338.25
2018-01-15T02:41:44.747Z,101341.09
2018-01-15T02:44:12.291Z,101338.47
2018-01-15T02:46:39.897Z,101340.00
2018-01-15T02:49:07.498Z,101347.20
2018-01-15T02:51:35.037Z,101342.30
2018-01-15T02:54:02.621Z,101341.84
2018-01-15T02:56:30.168Z,101342.25
2018-01-15T02:58:57.767Z,101334.83
2018-01-15T03:01:25.314Z,101341.02
2018-01-15T03:03:52.858Z,101343.00
2018-01-15T03:06:20.456Z,101339.86
2018-01-15T03:08:48.006Z,101342.15
2018-01-15T03:11:15.551Z,101337.55
2018-01-15T03:13:43.167Z,101335.88
2018-01-15T03:16:10.708Z,101324.33
2018-01-15T03:18:38.299Z,101322.25
2018-01-15T03:21:05.837Z,101324.88
2018-01-15T03:23:33.377Z,101319.88
2018-01-15T03:26:00.986Z,101315.65
2018-01-15T03:28:28.534Z,101311.33
2018-01-15T03:30:56.187Z,101322.06
2018-01-15T03:33:23.725Z,101320.74
2018-01-15T03:35:51.326Z,101323.26
2018-01-15T03:38:18.939Z,101315.25
2018-01-15T03:40:46.533Z,101319.57
2018-01-15T03:43:14.182Z,101315.44
2018-01-15T03:45:41.721Z,101320.89
2018-01-15T03:48:09.318Z,101315.84
2018-01-15T03:50:36.926Z,101315.16
2018-01-15T03:53:04.465Z,101330.66
2018-01-15T03:55:32.058Z,101330.09
2018-01-15T03:57:59.598Z,101331.33
2018-01-15T04:00:27.142Z,101328.95
2018-01-15T04:02:54.685Z,101328.92
2018-01-15T04:05:22.286Z,101325.13
2018-01-15T04:07:49.962Z,101320.89
2018-01-15T04:10:17.501Z,101324.18
2018-01-15T04:12:45.102Z,101333.48
2018-01-15T04:15:12.645Z,101329.33
2018-01-15T04:17:40.186Z,101330.81
2018-01-15T04:20:07.797Z,101331.67
2018-01-15T04:22:35.398Z,101330.03
2018-01-15T04:25:02.999Z,101331.76
2018-01-15T04:27:30.519Z,101328.25
2018-01-15T04:29:58.115Z,101341.72
2018-01-15T04:32:25.759Z,101342.30
2018-01-15T04:34:53.298Z,101337.36
2018-01-15T04:37:20.894Z,101340.18
2018-01-15T04:39:48.503Z,101348.13
2018-01-15T04:42:16.046Z,101334.84
2018-01-15T04:44:43.649Z,101335.34
2018-01-15T04:47:11.190Z,101346.82
2018-01-15T04:49:38.730Z,101349.11
2018-01-15T04:52:06.340Z,101339.73
2018-01-15T04:54:33.934Z,101345.56
2018-01-15T04:57:01.575Z,101339.30
2018-01-15T04:59:29.121Z,101342.81
2018-01-15T05:01:56.672Z,101346.05
2018-01-15T05:04:24.286Z,101337.92
2018-01-15T05:06:51.825Z,101346.95
2018-01-15T05:09:19.467Z,101346.44
2018-01-15T05:11:47.045Z,101354.05
2018-01-15T05:14:14.638Z,101353.11
2018-01-15T05:16:42.242Z,101360.77
2018-01-15T05:19:09.773Z,101361.67
2018-01-15T05:21:37.422Z,101363.72
2018-01-15T05:24:04.961Z,101366.99
2018-01-15T05:26:32.570Z,101374.86
2018-01-15T05:29:00.114Z,101378.70
2018-01-15T05:31:27.649Z,101384.12
2018-01-15T05:33:55.298Z,101388.27
2018-01-15T05:36:22.838Z,101388.58
2018-01-15T05:38:50.379Z,101390.89
2018-01-15T05:41:17.925Z,101392.39
2018-01-15T05:43:45.522Z,101397.59
2018-01-15T05:46:13.102Z,101392.02
2018-01-15T05:48:40.639Z,101397.09
2018-01-15T05:51:08.185Z,101403.09
2018-01-15T05:53:35.736Z,101399.75
2018-01-15T05:56:03.277Z,101399.55
2018-01-15T05:58:30.857Z,101397.53
2018-01-15T06:00:58.393Z,101398.37
2018-01-15T06:03:26.002Z,101397.14
2018-01-15T06:05:53.606Z,101402.54
2018-01-15T06:08:21.145Z,101394.93
2018-01-15T06:10:48.734Z,101394.09
2018-01-15T06:13:16.316Z,101400.52
2018-01-15T06:15:43.853Z,101416.64
2018-01-15T06:18:11.398Z,101417.96
2018-01-15T06:20:38.942Z,101427.91
2018-01-15T06:23:06.538Z,101435.77
2018-01-15T06:25:34.086Z,101428.52
2018-01-15T06:28:01.622Z,101434.53
2018-01-15T06:30:29.235Z,101436.34
2018-01-15T06:32:56.830Z,101436.06
2018-01-15T06:35:24.443Z,101441.48
2018-01-15T06:37:52.038Z,101437.22
2018-01-15T06:40:19.573Z,101445.22
2018-01-15T06:42:47.118Z,101443.80
2018-01-15T06:45:14.654Z,101447.42
2018-01-15T06:47:42.326Z,101447.77
2018-01-15T06:50:09.865Z,101448.66
2018-01-15T06:52:37.406Z,101452.02
2018-01-15T06:55:04.958Z,101446.03
2018-01-15T06:57:32.493Z,101447.77
2018-01-15T07:00:00.091Z,101457.76
2018-01-15T07:02:27.633Z,101455.37
2018-01-15T07:04:55.175Z,101453.19
2018-01-15T07:07:22.782Z,101460.57
2018-01-15T07:09:50.326Z,101469.45
2018-01-15T07:12:17.942Z,101469.94
2018-01-15T07:14:45.482Z,101465.27
2018-01-15T07:17:13.044Z,101466.78
2018-01-15T07:19:40.585Z,101470.91
2018-01-15T07:22:08.121Z,101470.19
2018-01-15T07:24:35.738Z,101470.41
2018-01-15T07:27:03.273Z,101469.41
2018-01-15T07:29:30.876Z,101465.59
2018-01-15T07:31:58.478Z,101468.79
2018-01-15T07:34:25.990Z,101464.78
2018-01-15T07:36:53.569Z,101469.47
2018-01-15T07:39:21.103Z,101460.72
2018-01-15T07:41:48.642Z,101462.48
2018-01-15T07:44:16.198Z,101465.26
2018-01-15T07:46:43.794Z,101475.52
2018-01-15T07:49:11.385Z,101459.12
2018-01-15T07:51:38.982Z,101463.69
2018-01-15T07:54:06.529Z,101487.91
2018-01-15T07:56:34.078Z,101496.52
2018-01-15T07:59:01.622Z,101490.65
2018-01-15T08:01:29.201Z,101495.32
2018-01-15T08:03:56.745Z,101485.58
2018-01-15T08:06:24.285Z,101479.59
2018-01-15T08:08:51.830Z,101468.19
2018-01-15T08:11:19.365Z,101461.97
2018-01-15T08:13:47.034Z,101455.08
2018-01-15T08:16:14.578Z,101478.61
2018-01-15T08:18:42.178Z,101487.50
2018-01-15T08:21:09.722Z,101479.82
2018-01-15T08:23:37.266Z,101482.19
2018-01-15T08:26:05.565Z,101486.50
2018-01-15T08:28:33.106Z,101476.12
2018-01-15T08:31:00.703Z,101476.47
2018-01-15T08:33:28.250Z,101474.64
2018-01-15T08:35:55.900Z,101478.83
2018-01-15T08:38:23.486Z,101481.81
2018-01-15T08:40:51.022Z,101490.44
2018-01-15T08:43:18.630Z,101492.78
2018-01-15T08:45:46.182Z,101492.20
2018-01-15T08:48:13.722Z,101482.15
2018-01-15T08:50:41.334Z,101461.09
2018-01-15T08:53:08.869Z,101452.53
2018-01-15T08:55:36.466Z,101443.59
2018-01-15T08:58:04.010Z,101446.97
2018-01-15T09:00:31.549Z,101444.89
2018-01-15T09:02:59.134Z,101439.34
2018-01-15T09:05:26.730Z,101445.27
2018-01-15T09:07:54.388Z,101465.52
2018-01-15T09:10:21.936Z,101469.61
2018-01-15T09:12:49.481Z,101478.78
2018-01-15T09:15:17.122Z,101474.34
2018-01-15T09:17:44.727Z,101484.30
2018-01-15T09:20:12.331Z,101490.72
2018-01-15T09:22:39.927Z,101490.17
2018-01-15T09:25:07.507Z,101496.56
2018-01-15T09:27:35.086Z,101494.09
2018-01-15T09:30:02.630Z,101484.06
2018-01-15T09:32:30.169Z,101477.77
2018-01-15T09:34:57.720Z,101480.08
2018-01-15T09:37:25.318Z,101473.61
2018-01-15T09:39:52.905Z,101474.06
2018-01-15T09:42:20.445Z,101460.86
2018-01-15T09:44:47.988Z,101459.09
2018-01-15T09:47:15.562Z,101462.51
2018-01-15T09:49:43.102Z,101457.02
2018-01-15T09:52:10.686Z,101454.69
2018-01-15T09:54:38.282Z,101470.94
2018-01-15T09:57:05.826Z,101476.59
2018-01-15T09:59:33.378Z,101463.50
2018-01-15T10:02:00.983Z,101456.71
2018-01-15T10:04:28.570Z,101455.24
2018-01-15T10:06:56.111Z,101436.90
2018-01-15T10:09:23.650Z,101433.89
2018-01-15T10:11:51.254Z,101433.27
2018-01-15T10:14:18.794Z,101430.38
2018-01-15T10:16:46.383Z,101427.91
2018-01-15T10:19:13.983Z,101422.88
2018-01-15T10:21:41.582Z,101433.46
2018-01-15T10:24:09.185Z,101431.53
2018-01-15T10:26:37.550Z,101428.65
2018-01-15T10:29:05.165Z,101430.09
2018-01-15T10:31:32.763Z,101426.66
2018-01-15T10:34:00.306Z,101426.09
2018-01-15T10:36:27.914Z,101418.63
2018-01-15T10:38:55.526Z,101414.51
2018-01-15T10:41:23.198Z,101412.34
2018-01-15T10:43:50.742Z,101400.55
2018-01-15T10:46:18.277Z,101400.45
2018-01-15T10:48:45.827Z,101398.94
2018-01-15T10:51:13.424Z,101396.65
2018-01-15T10:53:41.086Z,101405.78
2018-01-15T10:56:08.637Z,101400.47
2018-01-15T10:58:37.047Z,101391.05
2018-01-15T11:01:10.262Z,101384.42
2018-01-15T11:03:37.814Z,101378.72
2018-01-15T11:06:05.417Z,101382.22
2018-01-15T11:08:32.961Z,101371.30
2018-01-15T11:11:00.502Z,101370.93
2018-01-15T11:13:28.052Z,101362.75
2018-01-15T11:15:55.677Z,101362.39
2018-01-15T11:18:23.385Z,101365.66
2018-01-15T11:20:50.845Z,101358.54
2018-01-15T11:23:18.390Z,101359.72
2018-01-15T11:25:45.941Z,101361.81
2018-01-15T11:28:13.497Z,101352.20
2018-01-15T11:30:41.154Z,101342.93
2018-01-15T11:33:08.763Z,101336.33
2018-01-15T11:35:36.306Z,101331.65
2018-01-15T11:38:03.919Z,101330.27
2018-01-15T11:40:31.464Z,101342.62
2018-01-15T11:42:59.054Z,101335.87
2018-01-15T11:45:26.594Z,101332.46
2018-01-15T11:47:54.199Z,101326.45
2018-01-15T11:50:21.764Z,101323.86
2018-01-15T11:52:49.316Z,101327.63
2018-01-15T11:55:16.918Z,101332.98
2018-01-15T11:57:44.462Z,101331.38
2018-01-15T12:00:12.003Z,101335.72
2018-01-15T12:02:39.557Z,101326.00
2018-01-15T12:05:07.159Z,101334.44
2018-01-15T12:07:34.742Z,101332.81
2018-01-15T12:10:02.285Z,101333.94
2018-01-15T12:12:29.887Z,101326.16
2018-01-15T12:14:57.493Z,101321.11
2018-01-15T12:17:25.034Z,101317.61
2018-01-15T12:19:52.627Z,101319.50
2018-01-15T12:22:20.170Z,101315.78
2018-01-15T12:24:47.711Z,101319.56
2018-01-15T12:27:15.320Z,101312.45
2018-01-15T12:29:42.854Z,101313.89
2018-01-15T12:32:10.445Z,101312.58
2018-01-15T12:34:38.074Z,101309.29
2018-01-15T12:37:05.614Z,101320.08
2018-01-15T12:39:33.162Z,101317.56
2018-01-15T12:42:00.759Z,101312.84
2018-01-15T12:44:28.345Z,101314.32
2018-01-15T12:46:55.883Z,101315.76
2018-01-15T12:49:23.422Z,101312.97
2018-01-15T12:51:50.977Z,101311.95
2018-01-15T12:54:18.514Z,101300.86
2018-01-15T12:56:46.098Z,101294.44
2018-01-15T12:59:13.637Z,101288.69
2018-01-15T13:01:41.234Z,101288.41
2018-01-15T13:04:08.838Z,101286.69
2018-01-15T13:07:01.070Z,101284.08
2018-01-15T13:09:28.682Z,101286.73
2018-01-15T13:11:56.278Z,101290.72
2018-01-15T13:14:23.830Z,101300.91
2018-01-15T13:16:51.430Z,101288.83
2018-01-15T13:19:19.102Z,101288.50
2018-01-15T13:21:46.642Z,101280.27
2018-01-15T13:24:14.215Z,101279.22
2018-01-15T13:26:41.762Z,101279.13
2018-01-15T13:29:09.310Z,101276.66
2018-01-15T13:31:36.954Z,101275.41
2018-01-15T13:34:04.554Z,101274.31
2018-01-15T13:36:32.162Z,101272.70
2018-01-15T13:38:59.710Z,101265.73
2018-01-15T13:41:27.310Z,101264.73
2018-01-15T13:43:54.894Z,101269.22
2018-01-15T13:46:22.498Z,101270.33
2018-01-15T13:48:50.038Z,101263.95
2018-01-15T13:51:17.582Z,101258.24
2018-01-15T13:53:45.121Z,101261.20
2018-01-15T13:56:12.725Z,101249.50
2018-01-15T13:58:40.262Z,101246.06
2018-01-15T14:01:07.802Z,101244.53
2018-01-15T14:03:35.357Z,101243.03
2018-01-15T14:06:02.959Z,101239.14
2018-01-15T14:08:30.630Z,101228.48
2018-01-15T14:10:58.232Z,101237.33
2018-01-15T14:13:25.830Z,101244.01
2018-01-15T14:15:53.434Z,101234.46
2018-01-15T14:18:20.969Z,101232.73
2018-01-15T14:20:48.558Z,101235.32
2018-01-15T14:23:16.101Z,101231.46
2018-01-15T14:25:43.654Z,101226.28
2018-01-15T14:28:11.202Z,101223.48
2018-01-15T14:30:38.783Z,101218.44
2018-01-15T14:33:06.417Z,101222.92
2018-01-15T14:35:33.954Z,101216.03
2018-01-15T14:38:01.494Z,101212.28
2018-01-15T14:40:29.038Z,101214.77
2018-01-15T14:42:56.629Z,101224.98
2018-01-15T14:45:24.218Z,101229.31
2018-01-15T14:47:51.822Z,101228.38
2018-01-15T14:50:19.362Z,101225.27
2018-01-15T14:52:46.970Z,101219.39
2018-01-15T14:55:14.574Z,101219.59
2018-01-15T14:57:42.240Z,101217.72
2018-01-15T15:00:09.782Z,101212.81
2018-01-15T15:02:37.321Z,101198.28
2018-01-15T15:05:04.872Z,101198.30
2018-01-15T15:07:32.422Z,101203.52
2018-01-15T15:10:00.016Z,101208.41
2018-01-15T15:12:27.623Z,101202.59
2018-01-15T15:14:55.276Z,101202.97
2018-01-15T15:17:22.834Z,101199.63
2018-01-15T15:19:50.384Z,101191.41
2018-01-15T15:22:18.071Z,101185.74
2018-01-15T15:24:45.605Z,101186.84
2018-01-15T15:27:13.142Z,101185.82
2018-01-15T15:29:40.694Z,101167.66
2018-01-15T15:32:08.233Z,101157.09
2018-01-15T15:34:35.877Z,101161.73
2018-01-15T15:37:03.409Z,101161.60
2018-01-15T15:39:31.006Z,101148.62
2018-01-15T15:41:58.614Z,101158.06
2018-01-15T15:44:26.158Z,101152.11
2018-01-15T15:46:53.770Z,101148.52
2018-01-15T15:49:21.305Z,101149.49
2018-01-15T15:51:48.846Z,101156.16
2018-01-15T15:54:16.450Z,101149.28
2018-01-15T15:56:43.986Z,101147.77
2018-01-15T15:59:11.574Z,101148.63
2018-01-15T16:01:39.105Z,101141.56
2018-01-15T16:04:06.646Z,101142.05
2018-01-15T16:06:34.251Z,101141.94
2018-01-15T16:09:01.785Z,101141.86
2018-01-15T16:11:29.394Z,101137.19
2018-01-15T16:13:57.001Z,101134.45
2018-01-15T16:16:24.585Z,101133.59
2018-01-15T16:18:52.193Z,101141.39
2018-01-15T16:21:19.790Z,101151.41
2018-01-15T16:23:47.419Z,101143.11
2018-01-15T16:26:15.014Z,101143.68
2018-01-15T16:28:42.555Z,101140.88
2018-01-15T16:31:10.162Z,101137.77
2018-01-15T16:33:37.705Z,101142.08
2018-01-15T16:36:05.347Z,101142.37
2018-01-15T16:38:32.890Z,101137.30
2018-01-15T16:41:00.433Z,101139.08
2018-01-15T16:43:28.042Z,101132.95
2018-01-15T16:45:55.661Z,101128.49
2018-01-15T16:48:23.338Z,101121.77
2018-01-15T16:50:50.880Z,101108.73
2018-01-15T16:53:18.478Z,101111.96
2018-01-15T16:55:46.026Z,101118.51
2018-01-15T16:58:13.568Z,101128.18
2018-01-15T17:00:41.247Z,101117.66
2018-01-15T17:03:08.787Z,101116.14
2018-01-15T17:05:36.391Z,101125.35
2018-01-15T17:08:03.941Z,101133.30
2018-01-15T17:10:31.483Z,101121.92
2018-01-15T17:12:59.129Z,101120.60
2018-01-15T17:15:26.670Z,101129.61
2018-01-15T17:17:54.269Z,101138.11
2018-01-15T17:20:21.870Z,101122.86
2018-01-15T17:22:49.410Z,101112.39
2018-01-15T17:25:17.050Z,101105.48
2018-01-15T17:27:44.706Z,101103.56
2018-01-15T17:30:12.308Z,101096.02
2018-01-15T17:32:39.914Z,101097.61
2018-01-15T17:35:07.514Z,101095.58
2018-01-15T17:37:35.126Z,101098.47
2018-01-15T17:40:02.723Z,101104.98
2018-01-15T17:42:30.279Z,101100.23
2018-01-15T17:44:57.837Z,101092.82
2018-01-15T17:47:25.507Z,101081.01
2018-01-15T17:49:53.097Z,101073.84
2018-01-15T17:52:20.637Z,101075.02
2018-01-15T17:54:48.177Z,101075.75
2018-01-15T17:57:15.787Z,101075.28
2018-01-15T17:59:43.333Z,101078.28
2018-01-15T18:02:10.914Z,101078.97
2018-01-15T18:04:38.450Z,101076.88
2018-01-15T18:07:05.990Z,101076.08
2018-01-15T18:09:33.602Z,101075.13
2018-01-15T18:12:01.206Z,101082.57
2018-01-15T18:14:28.886Z,101085.22
2018-01-15T18:16:56.481Z,101083.04
2018-01-15T18:19:24.082Z,101074.25
2018-01-15T18:21:51.697Z,101057.75
2018-01-15T18:24:19.242Z,101047.26
2018-01-15T18:26:46.903Z,101040.13
2018-01-15T18:29:14.502Z,101051.58
2018-01-15T18:31:42.050Z,101042.23
2018-01-15T18:34:09.598Z,101030.13
2018-01-15T18:36:37.139Z,101032.08
2018-01-15T18:39:04.797Z,101027.83
2018-01-15T18:41:32.406Z,101023.87
2018-01-15T18:43:59.942Z,101017.35
2018-01-15T18:46:27.489Z,101006.77
2018-01-15T18:48:55.030Z,100999.54
2018-01-15T18:51:22.669Z,100993.88
2018-01-15T18:53:50.212Z,101001.45
2018-01-15T18:56:17.753Z,100999.61
2018-01-15T18:58:45.306Z,100998.84
2018-01-15T19:01:12.846Z,100990.38
2018-01-15T19:03:40.450Z,100990.73
2018-01-15T19:06:08.001Z,100991.33
2018-01-15T19:08:35.545Z,100977.90
2018-01-15T19:11:03.098Z,100973.09
2018-01-15T19:13:30.642Z,100965.30
2018-01-15T19:15:58.253Z,100969.58
2018-01-15T19:18:25.850Z,100981.52
2018-01-15T19:20:53.453Z,100964.58
2018-01-15T19:23:21.006Z,100964.38
2018-01-15T19:25:48.543Z,100966.72
2018-01-15T19:28:16.178Z,100968.00
2018-01-15T19:30:43.754Z,100967.38
2018-01-15T19:33:11.333Z,100963.79
2018-01-15T19:35:44.354Z,100959.18
2018-01-15T19:38:13.398Z,100946.56
2018-01-15T19:40:41.050Z,100940.84
2018-01-15T19:46:18.214Z,100934.41
2018-01-15T19:48:51.302Z,100935.54
2018-01-15T19:51:24.598Z,100940.88
2018-01-15T19:53:57.808Z,100941.44
2018-01-15T19:56:30.817Z,100933.06
2018-01-15T19:59:03.943Z,100928.42
2018-01-15T20:01:37.226Z,100927.70
2018-01-15T20:04:10.350Z,100919.44
2018-01-15T20:06:43.671Z,100916.38
2018-01-15T20:09:16.753Z,100915.52
2018-01-15T20:11:44.455Z,100918.38
2018-01-15T20:14:12.046Z,100913.94
2018-01-15T20:16:39.582Z,100906.16
2018-01-15T20:19:07.138Z,100908.02
2018-01-15T20:21:34.722Z,100904.48
2018-01-15T20:24:02.307Z,100895.14
2018-01-15T20:26:29.851Z,100890.90
2018-01-15T20:28:57.403Z,100885.43
2018-01-15T20:31:24.958Z,100883.00
2018-01-15T20:33:52.557Z,100880.86
2018-01-15T20:36:20.138Z,100865.98
2018-01-15T20:38:47.735Z,100858.38
2018-01-15T20:41:15.273Z,100857.48
2018-01-15T20:43:42.893Z,100863.28
2018-01-15T20:46:10.435Z,100857.05
2018-01-15T20:48:38.086Z,100873.30
2018-01-15T20:51:05.686Z,100872.73
2018-01-15T20:53:33.225Z,100864.41
2018-01-15T20:56:00.774Z,100856.05
2018-01-15T20:58:28.371Z,100850.56
2018-01-15T21:00:55.986Z,100850.77
2018-01-15T21:03:23.530Z,100852.19
2018-01-15T21:05:51.070Z,100847.97
2018-01-15T21:08:18.675Z,100846.05
2018-01-15T21:10:46.215Z,100854.73
2018-01-15T21:13:13.795Z,100857.89
2018-01-15T21:15:41.334Z,100859.62
2018-01-15T21:18:08.878Z,100859.12
2018-01-15T21:20:36.494Z,100853.23
2018-01-15T21:23:04.123Z,100845.31
2018-01-15T21:25:31.708Z,100842.41
2018-01-15T21:27:59.307Z,100847.91
2018-01-15T21:30:26.862Z,100851.52
2018-01-15T21:32:54.418Z,100862.45
2018-01-15T21:35:21.955Z,100848.99
2018-01-15T21:37:49.630Z,100860.05
2018-01-15T21:40:17.286Z,100854.39
2018-01-15T21:42:44.895Z,100843.55
2018-01-15T21:45:12.443Z,100839.59
2018-01-15T21:47:39.989Z,100836.72
2018-01-15T21:50:07.601Z,100837.16
2018-01-15T21:52:35.211Z,100834.96
2018-01-15T21:55:02.750Z,100840.28
2018-01-15T21:57:30.354Z,100849.22
2018-01-15T21:59:57.898Z,100837.38
2018-01-15T22:02:25.571Z,100832.06
2018-01-15T22:04:53.118Z,100831.09
2018-01-15T22:07:20.662Z,100831.27
2018-01-15T22:09:48.320Z,100831.97
2018-01-15T22:12:15.910Z,100828.29
2018-01-15T22:14:43.523Z,100813.28
2018-01-15T22:17:11.061Z,100821.55
2018-01-15T22:19:38.602Z,100813.52
2018-01-15T22:22:06.216Z,100811.45
2018-01-15T22:24:33.762Z,100811.02
2018-01-15T22:27:01.370Z,100808.02
2018-01-15T22:29:28.909Z,100806.41
2018-01-15T22:31:56.506Z,100816.13
2018-01-15T22:34:24.115Z,100808.96
2018-01-15T22:36:51.758Z,100798.64
2018-01-15T22:39:19.334Z,100798.39
2018-01-15T22:41:46.874Z,100792.80
2018-01-15T22:44:14.413Z,100781.55
2018-01-15T22:46:41.966Z,100785.52
2018-01-15T22:49:09.511Z,100787.67
2018-01-15T22:51:37.094Z,100782.77
2018-01-15T22:54:04.699Z,100776.79
2018-01-15T22:56:32.259Z,100772.05
2018-01-15T22:58:59.874Z,100771.89
2018-01-15T23:01:27.414Z,100766.98
2018-01-15T23:03:55.063Z,100760.51
2018-01-15T23:06:22.607Z,100749.63
2018-01-15T23:08:50.154Z,100749.06
2018-01-15T23:11:17.714Z,100756.36
2018-01-15T23:13:45.266Z,100756.66
2018-01-15T23:16:12.939Z,100745.28
2018-01-15T23:18:40.539Z,100739.06
2018-01-15T23:21:08.077Z,100742.97
2018-01-15T23:23:35.629Z,100741.00
2018-01-15T23:26:03.235Z,100720.05
2018-01-15T23:28:30.846Z,100724.48
2018-01-15T23:30:58.446Z,100727.55
2018-01-15T23:33:26.047Z,100725.91
2018-01-15T23:35:53.599Z,100712.31
2018-01-15T23:38:21.145Z,100695.77
2018-01-15T23:40:48.738Z,100700.98
2018-01-15T23:43:16.318Z,100713.57
2018-01-15T23:45:43.961Z,100709.86
2018-01-15T23:48:11.501Z,100707.80
2018-01-15T23:50:39.150Z,100718.85
2018-01-15T23:53:06.734Z,100725.23
2018-01-15T23:55:34.386Z,100711.81
2018-01-15T23:58:01.982Z,100717.14
